createdAt,value
2017-10-22T00:00:22.534Z,66.94
2017-10-22T00:00:54.177Z,66.92
2017-10-22T00:01:25.822Z,67.01
2017-10-22T00:01:57.466Z,67.05
2017-10-22T00:02:29.113Z,67.14
2017-10-22T00:03:00.761Z,67.13
2017-10-22T00:03:32.405Z,67.15
2017-10-22T00:04:04.058Z,67.15
2017-10-22T00:04:35.706Z,67.13
2017-10-22T00:05:07.489Z,67.19
2017-10-22T00:05:39.441Z,67.32
2017-10-22T00:06:11.089Z,67.28
2017-10-22T00:06:42.738Z,67.33
2017-10-22T00:07:14.653Z,67.27
2017-10-22T00:07:46.313Z,67.33
2017-10-22T00:08:18.001Z,67.36
2017-10-22T00:08:49.653Z,67.41
2017-10-22T00:09:21.301Z,67.43
2017-10-22T00:09:53.188Z,67.49
2017-10-22T00:10:24.841Z,67.53
2017-10-22T00:10:56.493Z,67.52
2017-10-22T00:11:28.141Z,67.60
2017-10-22T00:11:59.785Z,67.62
2017-10-22T00:12:31.705Z,67.62
2017-10-22T00:13:03.358Z,67.64
2017-10-22T00:13:35.005Z,67.67
2017-10-22T00:14:06.831Z,67.77
2017-10-22T00:14:38.581Z,67.73
2017-10-22T00:15:10.234Z,67.79
2017-10-22T00:15:41.882Z,67.86
2017-10-22T00:16:13.745Z,67.88
2017-10-22T00:16:45.393Z,67.89
2017-10-22T00:17:17.042Z,67.91
2017-10-22T00:17:48.739Z,68.00
2017-10-22T00:18:20.389Z,68.12
2017-10-22T00:18:52.034Z,68.23
2017-10-22T00:19:23.681Z,68.21
2017-10-22T00:19:55.325Z,68.23
2017-10-22T00:20:26.969Z,68.30
2017-10-22T00:20:58.622Z,68.29
2017-10-22T00:21:30.270Z,68.32
2017-10-22T00:22:01.918Z,68.36
2017-10-22T00:22:33.562Z,68.41
2017-10-22T00:23:05.464Z,68.39
2017-10-22T00:23:37.114Z,68.48
2017-10-22T00:24:08.766Z,68.45
2017-10-22T00:24:40.418Z,68.54
2017-10-22T00:25:12.065Z,68.49
2017-10-22T00:25:43.709Z,68.62
2017-10-22T00:26:15.353Z,68.66
2017-10-22T00:26:46.998Z,68.73
2017-10-22T00:27:18.649Z,68.62
2017-10-22T00:27:50.548Z,68.74
2017-10-22T00:28:22.196Z,68.78
2017-10-22T00:28:53.841Z,68.88
2017-10-22T00:29:25.498Z,68.83
2017-10-22T00:29:57.145Z,69.05
2017-10-22T00:30:28.840Z,69.20
2017-10-22T00:31:00.708Z,69.19
2017-10-22T00:32:10.201Z,69.16
2017-10-22T00:32:41.894Z,69.30
2017-10-22T00:33:13.549Z,69.20
2017-10-22T00:33:45.193Z,69.33
2017-10-22T00:34:16.837Z,69.37
2017-10-22T00:34:48.485Z,69.39
2017-10-22T00:35:20.138Z,69.45
2017-10-22T00:35:51.794Z,69.52
2017-10-22T00:36:23.445Z,69.49
2017-10-22T00:36:55.220Z,69.42
2017-10-22T00:37:26.870Z,69.63
2017-10-22T00:37:58.558Z,69.81
2017-10-22T00:38:30.211Z,70.25
2017-10-22T00:39:01.862Z,69.97
2017-10-22T00:39:33.737Z,69.99
2017-10-22T00:40:05.386Z,69.99
2017-10-22T00:40:37.038Z,70.03
2017-10-22T00:41:08.689Z,69.91
2017-10-22T00:41:40.341Z,70.02
2017-10-22T00:42:11.985Z,69.89
2017-10-22T00:42:43.634Z,69.76
2017-10-22T00:43:15.373Z,69.89
2017-10-22T00:43:47.021Z,69.98
2017-10-22T00:44:18.673Z,69.79
2017-10-22T00:44:50.463Z,69.77
2017-10-22T00:45:22.113Z,69.77
2017-10-22T00:45:53.766Z,69.76
2017-10-22T00:46:25.417Z,69.90
2017-10-22T00:46:57.058Z,69.74
2017-10-22T00:47:28.709Z,69.80
2017-10-22T00:48:00.358Z,69.79
2017-10-22T00:48:32.012Z,69.76
2017-10-22T00:49:03.664Z,69.77
2017-10-22T00:49:35.489Z,69.83
2017-10-22T00:50:07.138Z,69.94
2017-10-22T00:50:38.830Z,69.73
2017-10-22T00:51:10.780Z,69.88
2017-10-22T00:51:42.429Z,69.73
2017-10-22T00:52:14.074Z,69.69
2017-10-22T00:52:45.730Z,69.75
2017-10-22T00:53:17.373Z,69.68
2017-10-22T00:53:49.031Z,69.70
2017-10-22T00:54:20.678Z,69.70
2017-10-22T00:54:52.334Z,69.77
2017-10-22T00:55:24.222Z,69.64
2017-10-22T00:55:55.873Z,69.58
2017-10-22T00:56:27.565Z,69.66
2017-10-22T00:56:59.455Z,69.79
2017-10-22T00:57:31.108Z,69.68
2017-10-22T00:58:02.762Z,69.68
2017-10-22T00:58:34.415Z,69.74
2017-10-22T00:59:06.058Z,69.76
2017-10-22T00:59:37.706Z,69.72
2017-10-22T01:00:09.353Z,69.80
2017-10-22T01:00:41.006Z,69.76
2017-10-22T01:01:12.898Z,69.73
2017-10-22T01:01:44.594Z,69.79
2017-10-22T01:02:16.489Z,69.76
2017-10-22T01:02:48.137Z,69.75
2017-10-22T01:03:19.786Z,69.70
2017-10-22T01:03:51.430Z,69.77
2017-10-22T01:04:23.073Z,69.80
2017-10-22T01:04:54.717Z,69.79
2017-10-22T01:05:26.360Z,69.78
2017-10-22T01:05:58.005Z,69.87
2017-10-22T01:06:29.649Z,69.68
2017-10-22T01:07:01.326Z,69.76
2017-10-22T01:07:32.974Z,69.78
2017-10-22T01:08:04.625Z,69.78
2017-10-22T01:08:36.499Z,69.75
2017-10-22T01:09:08.149Z,69.94
2017-10-22T01:09:39.794Z,69.75
2017-10-22T01:10:11.679Z,69.75
2017-10-22T01:10:43.325Z,69.83
2017-10-22T01:11:15.016Z,69.79
2017-10-22T01:11:46.900Z,69.75
2017-10-22T01:12:18.549Z,69.78
2017-10-22T01:12:50.201Z,69.76
2017-10-22T01:13:21.851Z,69.80
2017-10-22T01:13:53.545Z,69.82
2017-10-22T01:14:25.189Z,69.80
2017-10-22T01:14:56.833Z,69.82
2017-10-22T01:15:28.478Z,69.80
2017-10-22T01:16:00.127Z,69.95
2017-10-22T01:16:31.770Z,70.16
2017-10-22T01:17:03.413Z,69.98
2017-10-22T01:17:35.062Z,70.16
2017-10-22T01:18:06.706Z,69.98
2017-10-22T01:18:38.354Z,69.98
2017-10-22T01:19:10.228Z,69.92
2017-10-22T01:19:41.899Z,69.66
2017-10-22T01:20:13.849Z,69.61
2017-10-22T01:20:45.812Z,69.48
2017-10-22T01:21:17.751Z,69.57
2017-10-22T01:21:49.401Z,69.63
2017-10-22T01:22:21.046Z,69.60
2017-10-22T01:22:52.694Z,69.61
2017-10-22T01:23:24.349Z,69.61
2017-10-22T01:23:55.994Z,69.68
2017-10-22T01:24:27.998Z,69.69
2017-10-22T01:24:59.836Z,69.69
2017-10-22T01:25:31.497Z,69.69
2017-10-22T01:26:03.150Z,69.68
2017-10-22T01:26:34.831Z,69.72
2017-10-22T01:27:06.481Z,69.69
2017-10-22T01:27:38.125Z,69.72
2017-10-22T01:28:09.784Z,69.74
2017-10-22T01:28:41.657Z,69.78
2017-10-22T01:29:13.609Z,69.83
2017-10-22T01:29:45.257Z,69.90
2017-10-22T01:30:16.914Z,69.84
2017-10-22T01:30:48.561Z,69.82
2017-10-22T01:31:20.480Z,69.84
2017-10-22T01:31:52.138Z,69.87
2017-10-22T01:32:23.786Z,69.84
2017-10-22T01:32:55.429Z,69.84
2017-10-22T01:33:27.073Z,69.88
2017-10-22T01:33:58.714Z,69.85
2017-10-22T01:34:30.354Z,69.99
2017-10-22T01:35:02.002Z,69.83
2017-10-22T01:35:33.830Z,69.87
2017-10-22T01:36:05.482Z,69.84
2017-10-22T01:36:37.137Z,69.90
2017-10-22T01:37:08.785Z,69.86
2017-10-22T01:37:40.434Z,69.82
2017-10-22T01:38:12.085Z,69.87
2017-10-22T01:38:43.735Z,69.93
2017-10-22T01:39:15.614Z,69.93
2017-10-22T01:39:47.365Z,69.96
2017-10-22T01:40:19.013Z,69.87
2017-10-22T01:40:50.955Z,69.92
2017-10-22T01:41:22.605Z,69.94
2017-10-22T01:41:54.258Z,69.92
2017-10-22T01:42:25.912Z,69.94
2017-10-22T01:42:57.830Z,70.02
2017-10-22T01:43:29.481Z,69.92
2017-10-22T01:44:01.125Z,70.01
2017-10-22T01:44:32.774Z,70.00
2017-10-22T01:45:04.417Z,70.08
2017-10-22T01:45:36.065Z,70.07
2017-10-22T01:46:07.710Z,70.11
2017-10-22T01:46:39.357Z,70.10
2017-10-22T01:47:11.009Z,70.05
2017-10-22T01:47:42.657Z,70.03
2017-10-22T01:48:14.543Z,70.10
2017-10-22T01:48:46.506Z,70.04
2017-10-22T01:49:18.158Z,70.10
2017-10-22T01:49:49.824Z,70.41
2017-10-22T01:50:21.473Z,70.27
2017-10-22T01:50:53.122Z,70.32
2017-10-22T01:51:24.773Z,70.27
2017-10-22T01:51:56.426Z,70.21
2017-10-22T01:52:28.306Z,70.43
2017-10-22T01:53:00.153Z,70.37
2017-10-22T01:53:31.838Z,70.57
2017-10-22T01:54:03.481Z,70.35
2017-10-22T01:54:35.129Z,70.46
2017-10-22T01:55:06.778Z,70.51
2017-10-22T01:55:38.465Z,70.38
2017-10-22T01:56:10.114Z,70.47
2017-10-22T01:56:41.761Z,70.58
2017-10-22T01:57:13.406Z,70.47
2017-10-22T01:57:45.049Z,70.59
2017-10-22T01:58:16.705Z,70.70
2017-10-22T01:58:48.515Z,70.95
2017-10-22T01:59:20.267Z,70.79
2017-10-22T01:59:51.926Z,70.78
2017-10-22T02:00:23.582Z,70.86
2017-10-22T02:00:55.230Z,70.79
2017-10-22T02:01:26.882Z,70.96
2017-10-22T02:01:58.533Z,70.75
2017-10-22T02:02:30.401Z,70.82
2017-10-22T02:03:02.350Z,70.86
2017-10-22T02:03:34.003Z,70.85
2017-10-22T02:04:05.964Z,70.81
2017-10-22T02:04:37.613Z,70.73
2017-10-22T02:05:09.257Z,70.83
2017-10-22T02:05:40.909Z,70.73
2017-10-22T02:06:12.553Z,70.68
2017-10-22T02:06:44.197Z,71.14
2017-10-22T02:07:15.847Z,71.09
2017-10-22T02:07:47.490Z,71.11
2017-10-22T02:08:19.360Z,71.13
2017-10-22T02:08:51.010Z,71.25
2017-10-22T02:09:22.691Z,71.25
2017-10-22T02:09:54.342Z,71.24
2017-10-22T02:10:25.985Z,71.22
2017-10-22T02:10:57.923Z,71.19
2017-10-22T02:11:29.872Z,71.36
2017-10-22T02:12:01.522Z,71.25
2017-10-22T02:12:33.173Z,71.18
2017-10-22T02:13:04.857Z,71.10
2017-10-22T02:13:36.505Z,71.17
2017-10-22T02:14:08.389Z,71.13
2017-10-22T02:14:40.038Z,71.08
2017-10-22T02:15:11.682Z,71.13
2017-10-22T02:15:43.374Z,71.09
2017-10-22T02:16:15.022Z,71.22
2017-10-22T02:16:46.906Z,71.11
2017-10-22T02:17:18.617Z,71.21
2017-10-22T02:17:50.496Z,71.04
2017-10-22T02:18:22.150Z,71.22
2017-10-22T02:18:53.797Z,71.15
2017-10-22T02:19:25.441Z,71.19
2017-10-22T02:19:57.090Z,71.17
2017-10-22T02:20:28.740Z,71.15
2017-10-22T02:21:00.386Z,71.12
2017-10-22T02:21:32.034Z,71.14
2017-10-22T02:22:03.833Z,71.19
2017-10-22T02:22:35.522Z,71.10
2017-10-22T02:23:07.166Z,71.15
2017-10-22T02:23:38.821Z,71.25
2017-10-22T02:24:10.474Z,71.25
2017-10-22T02:24:42.146Z,71.16
2017-10-22T02:25:14.098Z,71.12
2017-10-22T02:25:45.745Z,71.15
2017-10-22T02:26:17.393Z,71.12
2017-10-22T02:26:49.044Z,71.12
2017-10-22T02:27:20.699Z,71.05
2017-10-22T02:27:52.615Z,71.11
2017-10-22T02:28:24.551Z,71.10
2017-10-22T02:28:56.206Z,71.10
2017-10-22T02:29:28.048Z,71.10
2017-10-22T02:29:59.797Z,71.02
2017-10-22T02:30:31.745Z,71.05
2017-10-22T02:31:03.393Z,71.07
2017-10-22T02:31:35.042Z,71.04
2017-10-22T02:32:06.687Z,71.03
2017-10-22T02:32:38.345Z,71.02
2017-10-22T02:33:10.002Z,71.22
2017-10-22T02:33:41.709Z,71.07
2017-10-22T02:34:13.363Z,71.13
2017-10-22T02:34:45.018Z,71.04
2017-10-22T02:35:16.677Z,71.07
2017-10-22T02:35:48.485Z,71.00
2017-10-22T02:36:20.134Z,71.03
2017-10-22T02:36:51.802Z,70.99
2017-10-22T02:37:23.453Z,71.02
2017-10-22T02:37:55.107Z,71.01
2017-10-22T02:38:26.758Z,71.02
2017-10-22T02:38:58.453Z,71.02
2017-10-22T02:39:30.162Z,71.03
2017-10-22T02:40:01.915Z,71.06
2017-10-22T02:40:33.618Z,71.05
2017-10-22T02:41:05.505Z,71.01
2017-10-22T02:41:37.154Z,71.12
2017-10-22T02:42:08.797Z,71.12
2017-10-22T02:42:40.442Z,71.11
2017-10-22T02:43:12.091Z,71.35
2017-10-22T02:43:43.739Z,71.20
2017-10-22T02:44:15.386Z,71.24
2017-10-22T02:44:47.029Z,71.14
2017-10-22T02:45:18.678Z,71.21
2017-10-22T02:45:50.501Z,71.22
2017-10-22T02:46:22.150Z,71.28
2017-10-22T02:46:53.794Z,71.18
2017-10-22T02:47:25.445Z,71.16
2017-10-22T02:47:57.157Z,71.31
2017-10-22T02:48:29.042Z,71.24
2017-10-22T02:49:00.690Z,71.25
2017-10-22T02:49:32.333Z,71.33
2017-10-22T02:50:03.985Z,71.24
2017-10-22T02:50:35.673Z,71.34
2017-10-22T02:51:07.361Z,71.39
2017-10-22T02:51:39.013Z,71.30
2017-10-22T02:52:10.906Z,71.37
2017-10-22T02:52:42.568Z,71.34
2017-10-22T02:53:14.260Z,71.49
2017-10-22T02:53:46.101Z,71.40
2017-10-22T02:54:17.781Z,71.34
2017-10-22T02:54:49.732Z,71.35
2017-10-22T02:55:21.382Z,71.48
2017-10-22T02:55:53.030Z,71.43
2017-10-22T02:56:24.868Z,71.39
2017-10-22T02:56:56.549Z,71.45
2017-10-22T02:57:28.202Z,71.50
2017-10-22T02:57:59.889Z,71.37
2017-10-22T02:58:31.838Z,71.37
2017-10-22T02:59:03.686Z,71.38
2017-10-22T02:59:35.339Z,71.26
2017-10-22T03:00:07.270Z,71.37
2017-10-22T03:00:38.924Z,71.37
2017-10-22T03:01:10.566Z,71.27
2017-10-22T03:01:42.209Z,71.30
2017-10-22T03:02:13.901Z,71.26
2017-10-22T03:02:45.550Z,71.28
2017-10-22T03:03:17.193Z,71.26
2017-10-22T03:03:48.876Z,71.27
2017-10-22T03:04:20.526Z,71.32
2017-10-22T03:04:52.174Z,71.19
2017-10-22T03:05:23.817Z,71.20
2017-10-22T03:05:55.465Z,71.29
2017-10-22T03:06:27.109Z,71.29
2017-10-22T03:06:58.771Z,71.25
2017-10-22T03:07:30.673Z,71.22
2017-10-22T03:08:02.514Z,71.27
2017-10-22T03:08:34.264Z,71.49
2017-10-22T03:09:05.914Z,71.36
2017-10-22T03:09:37.557Z,71.39
2017-10-22T03:10:09.496Z,71.39
2017-10-22T03:10:41.151Z,71.34
2017-10-22T03:11:12.793Z,71.44
2017-10-22T03:11:44.437Z,71.37
2017-10-22T03:12:16.121Z,71.30
2017-10-22T03:12:48.014Z,71.38
2017-10-22T03:13:19.662Z,71.38
2017-10-22T03:13:51.310Z,71.36
2017-10-22T03:14:22.953Z,71.33
2017-10-22T03:14:54.599Z,71.27
2017-10-22T03:15:26.252Z,71.49
2017-10-22T03:15:57.908Z,71.37
2017-10-22T03:16:29.565Z,71.32
2017-10-22T03:17:01.455Z,71.32
2017-10-22T03:17:33.155Z,71.37
2017-10-22T03:18:05.005Z,71.37
2017-10-22T03:18:36.887Z,71.32
2017-10-22T03:19:08.638Z,71.50
2017-10-22T03:19:40.500Z,71.30
2017-10-22T03:20:12.145Z,71.16
2017-10-22T03:20:43.801Z,71.16
2017-10-22T03:21:15.449Z,71.18
2017-10-22T03:21:47.098Z,71.19
2017-10-22T03:22:18.749Z,71.32
2017-10-22T03:22:50.449Z,71.16
2017-10-22T03:23:22.094Z,71.13
2017-10-22T03:23:53.751Z,71.12
2017-10-22T03:24:25.395Z,71.11
2017-10-22T03:24:57.041Z,71.13
2017-10-22T03:25:28.687Z,71.13
2017-10-22T03:26:00.333Z,71.15
2017-10-22T03:26:31.976Z,71.17
2017-10-22T03:27:03.632Z,71.18
2017-10-22T03:27:35.277Z,71.19
2017-10-22T03:28:06.978Z,71.42
2017-10-22T03:28:38.622Z,71.38
2017-10-22T03:29:10.448Z,71.39
2017-10-22T03:29:42.098Z,71.25
2017-10-22T03:30:13.742Z,71.26
2017-10-22T03:30:45.396Z,71.33
2017-10-22T03:31:17.042Z,71.41
2017-10-22T03:31:50.418Z,71.48
2017-10-22T03:32:22.074Z,71.50
2017-10-22T03:33:01.554Z,71.65
2017-10-22T03:33:33.221Z,71.50
2017-10-22T03:34:04.866Z,71.31
2017-10-22T03:34:36.509Z,71.40
2017-10-22T03:35:08.157Z,71.56
2017-10-22T03:35:39.805Z,71.55
2017-10-22T03:36:11.822Z,71.45
2017-10-22T03:36:43.572Z,71.47
2017-10-22T03:37:15.449Z,71.50
2017-10-22T03:37:47.098Z,71.53
2017-10-22T03:38:18.786Z,71.48
2017-10-22T03:38:50.401Z,71.66
2017-10-22T03:39:22.045Z,71.74
2017-10-22T03:39:53.745Z,71.64
2017-10-22T03:40:25.389Z,71.68
2017-10-22T03:40:57.033Z,71.53
2017-10-22T03:41:28.677Z,71.59
2017-10-22T03:42:00.326Z,71.53
2017-10-22T03:42:31.973Z,71.53
2017-10-22T03:43:03.621Z,71.67
2017-10-22T03:43:35.269Z,71.60
2017-10-22T03:44:07.174Z,71.53
2017-10-22T03:44:38.825Z,71.54
2017-10-22T03:45:10.514Z,71.66
2017-10-22T03:45:42.158Z,71.66
2017-10-22T03:46:14.048Z,71.65
2017-10-22T03:46:45.698Z,71.58
2017-10-22T03:47:17.530Z,71.63
2017-10-22T03:47:49.281Z,71.65
2017-10-22T03:48:21.117Z,71.58
2017-10-22T03:48:52.872Z,71.74
2017-10-22T03:49:24.521Z,71.84
2017-10-22T03:49:56.165Z,71.73
2017-10-22T03:50:28.306Z,71.76
2017-10-22T03:50:59.994Z,71.74
2017-10-22T03:51:31.807Z,71.68
2017-10-22T03:52:03.453Z,71.58
2017-10-22T03:52:35.106Z,71.69
2017-10-22T03:53:07.851Z,71.72
2017-10-22T03:53:39.502Z,71.81
2017-10-22T03:54:11.154Z,71.78
2017-10-22T03:54:42.806Z,71.98
2017-10-22T03:55:15.121Z,71.85
2017-10-22T03:55:46.981Z,71.73
2017-10-22T03:56:18.843Z,71.67
2017-10-22T03:56:50.753Z,71.72
2017-10-22T03:57:22.522Z,71.47
2017-10-22T03:57:56.085Z,71.75
2017-10-22T03:58:27.889Z,71.47
2017-10-22T03:58:59.538Z,71.65
2017-10-22T03:59:31.193Z,71.40
2017-10-22T04:00:02.837Z,71.48
2017-10-22T04:00:34.490Z,71.36
2017-10-22T04:01:06.163Z,71.45
2017-10-22T04:01:37.854Z,71.47
2017-10-22T04:02:09.505Z,71.40
2017-10-22T04:02:41.153Z,71.50
2017-10-22T04:03:13.040Z,71.50
2017-10-22T04:03:44.705Z,71.39
2017-10-22T04:04:16.933Z,71.52
2017-10-22T04:04:48.602Z,71.53
2017-10-22T04:05:20.253Z,71.46
2017-10-22T04:05:51.902Z,71.40
2017-10-22T04:06:23.554Z,71.33
2017-10-22T04:06:55.438Z,71.45
2017-10-22T04:07:27.099Z,71.44
2017-10-22T04:07:58.749Z,71.25
2017-10-22T04:08:30.402Z,71.22
2017-10-22T04:09:02.050Z,71.22
2017-10-22T04:09:33.697Z,71.08
2017-10-22T04:10:05.349Z,71.12
2017-10-22T04:10:36.998Z,71.09
2017-10-22T04:11:08.654Z,71.06
2017-10-22T04:11:40.303Z,70.75
2017-10-22T04:12:11.998Z,70.49
2017-10-22T04:12:43.642Z,70.56
2017-10-22T04:13:15.290Z,70.44
2017-10-22T04:13:46.933Z,69.99
2017-10-22T04:14:18.581Z,68.81
2017-10-22T04:14:50.230Z,68.73
2017-10-22T04:15:21.877Z,68.55
2017-10-22T04:15:53.525Z,67.78
2017-10-22T04:16:25.173Z,68.38
2017-10-22T04:16:56.959Z,68.73
2017-10-22T04:17:28.641Z,68.64
2017-10-22T04:18:00.289Z,68.75
2017-10-22T04:18:31.941Z,69.06
2017-10-22T04:19:03.585Z,69.15
2017-10-22T04:19:35.426Z,69.18
2017-10-22T04:20:07.083Z,69.23
2017-10-22T04:20:38.755Z,69.05
2017-10-22T04:21:10.410Z,69.06
2017-10-22T04:21:42.294Z,69.05
2017-10-22T04:22:13.945Z,69.04
2017-10-22T04:22:45.597Z,69.07
2017-10-22T04:23:17.246Z,69.14
2017-10-22T04:23:48.918Z,69.08
2017-10-22T04:24:20.531Z,68.99
2017-10-22T04:24:52.201Z,69.10
2017-10-22T04:25:23.881Z,69.27
2017-10-22T04:25:55.533Z,69.31
2017-10-22T04:26:27.186Z,69.26
2017-10-22T04:26:58.833Z,69.30
2017-10-22T04:27:30.521Z,69.36
2017-10-22T04:28:02.183Z,69.47
2017-10-22T04:28:33.833Z,69.47
2017-10-22T04:29:05.478Z,69.40
2017-10-22T04:29:37.286Z,69.44
2017-10-22T04:30:08.937Z,69.49
2017-10-22T04:30:40.581Z,69.52
2017-10-22T04:31:12.230Z,69.57
2017-10-22T04:31:43.886Z,69.60
2017-10-22T04:32:15.763Z,69.69
2017-10-22T04:32:47.445Z,69.73
2017-10-22T04:33:19.093Z,69.77
2017-10-22T04:33:50.744Z,69.82
2017-10-22T04:34:22.390Z,69.84
2017-10-22T04:34:54.070Z,69.85
2017-10-22T04:35:25.963Z,69.88
2017-10-22T04:35:57.618Z,69.86
2017-10-22T04:36:29.262Z,69.90
2017-10-22T04:37:00.910Z,69.91
2017-10-22T04:37:32.560Z,69.94
2017-10-22T04:38:04.205Z,69.92
2017-10-22T04:38:35.850Z,70.01
2017-10-22T04:39:07.501Z,70.08
2017-10-22T04:39:39.357Z,70.07
2017-10-22T04:40:11.005Z,70.08
2017-10-22T04:40:42.684Z,70.14
2017-10-22T04:41:14.563Z,70.19
2017-10-22T04:41:46.210Z,70.17
2017-10-22T04:42:17.916Z,70.24
2017-10-22T04:42:49.782Z,70.20
2017-10-22T04:43:21.431Z,70.20
2017-10-22T04:43:53.078Z,70.27
2017-10-22T04:44:24.791Z,70.26
2017-10-22T04:44:56.482Z,70.41
2017-10-22T04:45:28.386Z,70.40
2017-10-22T04:46:00.248Z,70.42
2017-10-22T04:46:32.284Z,70.42
2017-10-22T04:47:03.937Z,70.40
2017-10-22T04:47:35.585Z,70.40
2017-10-22T04:48:07.229Z,70.41
2017-10-22T04:48:38.878Z,70.38
2017-10-22T04:49:10.521Z,70.47
2017-10-22T04:49:42.399Z,70.40
2017-10-22T04:50:14.046Z,70.56
2017-10-22T04:50:45.727Z,70.54
2017-10-22T04:51:17.377Z,70.58
2017-10-22T04:51:49.029Z,70.60
2017-10-22T04:52:20.677Z,70.62
2017-10-22T04:52:52.321Z,70.60
2017-10-22T04:53:24.244Z,70.62
2017-10-22T04:53:55.893Z,70.68
2017-10-22T04:54:27.542Z,70.72
2017-10-22T04:54:59.189Z,70.73
2017-10-22T04:55:30.837Z,70.75
2017-10-22T04:56:02.482Z,70.73
2017-10-22T04:56:34.126Z,70.73
2017-10-22T04:57:05.770Z,70.84
2017-10-22T04:57:37.417Z,70.76
2017-10-22T04:58:09.069Z,70.73
2017-10-22T04:58:40.921Z,70.76
2017-10-22T04:59:12.569Z,70.83
2017-10-22T04:59:44.253Z,70.74
2017-10-22T05:00:15.914Z,70.77
2017-10-22T05:00:47.557Z,70.85
2017-10-22T05:01:19.203Z,70.81
2017-10-22T05:01:50.854Z,70.78
2017-10-22T05:02:22.501Z,70.80
2017-10-22T05:02:54.152Z,70.94
2017-10-22T05:03:25.805Z,70.99
2017-10-22T05:03:57.621Z,70.96
2017-10-22T05:04:29.285Z,70.88
2017-10-22T05:05:00.937Z,70.93
2017-10-22T05:05:32.582Z,70.90
2017-10-22T05:06:04.230Z,70.91
2017-10-22T05:06:35.901Z,70.89
2017-10-22T05:07:07.562Z,70.96
2017-10-22T05:07:39.209Z,70.93
2017-10-22T05:08:10.910Z,70.94
2017-10-22T05:08:42.780Z,70.97
2017-10-22T05:09:14.429Z,70.99
2017-10-22T05:09:46.074Z,71.04
2017-10-22T05:10:17.725Z,70.99
2017-10-22T05:10:49.369Z,71.04
2017-10-22T05:11:21.017Z,71.07
2017-10-22T05:11:52.661Z,71.04
2017-10-22T05:12:24.305Z,71.03
2017-10-22T05:12:55.949Z,71.03
2017-10-22T05:13:27.865Z,71.05
2017-10-22T05:13:59.513Z,71.04
2017-10-22T05:14:31.154Z,71.09
2017-10-22T05:15:02.798Z,71.12
2017-10-22T05:15:34.442Z,71.14
2017-10-22T05:16:06.101Z,71.14
2017-10-22T05:16:37.765Z,71.18
2017-10-22T05:17:09.413Z,71.19
2017-10-22T05:17:41.057Z,71.15
2017-10-22T05:18:12.706Z,71.20
2017-10-22T05:18:44.394Z,71.23
2017-10-22T05:19:16.042Z,71.30
2017-10-22T05:19:47.691Z,71.24
2017-10-22T05:20:19.333Z,71.19
2017-10-22T05:20:50.982Z,71.17
2017-10-22T05:21:22.626Z,71.25
2017-10-22T05:21:54.273Z,71.27
2017-10-22T05:22:25.917Z,71.21
2017-10-22T05:22:57.565Z,71.29
2017-10-22T05:23:29.367Z,71.22
2017-10-22T05:24:01.057Z,71.36
2017-10-22T05:24:32.705Z,71.21
2017-10-22T05:25:04.357Z,71.21
2017-10-22T05:25:36.010Z,71.33
2017-10-22T05:26:07.885Z,71.35
2017-10-22T05:26:39.537Z,71.35
2017-10-22T05:27:11.185Z,71.34
2017-10-22T05:27:42.833Z,71.30
2017-10-22T05:28:14.514Z,71.28
2017-10-22T05:28:46.397Z,71.46
2017-10-22T05:29:18.350Z,71.38
2017-10-22T05:29:50.144Z,71.46
2017-10-22T05:30:21.793Z,71.31
2017-10-22T05:30:53.582Z,71.28
2017-10-22T05:31:25.234Z,71.33
2017-10-22T05:31:56.878Z,71.37
2017-10-22T05:32:28.525Z,71.36
2017-10-22T05:33:00.169Z,71.32
2017-10-22T05:33:31.823Z,71.35
2017-10-22T05:34:03.470Z,71.35
2017-10-22T05:34:35.113Z,71.38
2017-10-22T05:35:06.757Z,71.39
2017-10-22T05:35:38.405Z,71.29
2017-10-22T05:36:10.311Z,71.29
2017-10-22T05:36:41.963Z,71.42
2017-10-22T05:37:13.618Z,71.45
2017-10-22T05:37:45.261Z,71.42
2017-10-22T05:38:16.904Z,71.49
2017-10-22T05:38:48.555Z,71.58
2017-10-22T05:39:20.197Z,71.59
2017-10-22T05:39:51.848Z,71.56
2017-10-22T05:40:23.494Z,71.64
2017-10-22T05:40:55.393Z,71.63
2017-10-22T05:41:27.041Z,71.69
2017-10-22T05:41:58.692Z,71.64
2017-10-22T05:42:30.345Z,71.68
2017-10-22T05:43:02.269Z,71.62
2017-10-22T05:43:33.918Z,71.71
2017-10-22T05:44:05.561Z,71.83
2017-10-22T05:44:37.208Z,71.76
2017-10-22T05:45:08.849Z,71.71
2017-10-22T05:45:40.497Z,71.85
2017-10-22T05:46:12.146Z,71.72
2017-10-22T05:46:43.797Z,71.79
2017-10-22T05:47:15.452Z,71.83
2017-10-22T05:47:47.104Z,71.77
2017-10-22T05:48:18.990Z,71.77
2017-10-22T05:48:50.945Z,71.87
2017-10-22T05:49:22.603Z,71.83
2017-10-22T05:49:54.249Z,71.83
2017-10-22T05:50:25.893Z,71.87
2017-10-22T05:50:57.733Z,71.83
2017-10-22T05:51:29.382Z,71.88
2017-10-22T05:52:01.026Z,71.88
2017-10-22T05:52:32.673Z,71.80
2017-10-22T05:53:04.314Z,71.87
2017-10-22T05:53:35.963Z,71.89
2017-10-22T05:54:07.612Z,71.92
2017-10-22T05:54:39.269Z,71.89
2017-10-22T05:55:11.244Z,71.87
2017-10-22T05:55:42.903Z,71.92
2017-10-22T05:56:14.553Z,71.95
2017-10-22T05:56:46.441Z,72.05
2017-10-22T05:57:18.093Z,71.95
2017-10-22T05:57:49.742Z,71.96
2017-10-22T05:58:21.419Z,71.92
2017-10-22T05:58:53.077Z,71.98
2017-10-22T05:59:24.721Z,71.97
2017-10-22T05:59:56.366Z,71.91
2017-10-22T06:00:28.052Z,72.13
2017-10-22T06:00:59.879Z,71.90
2017-10-22T06:01:31.526Z,71.95
2017-10-22T06:02:03.220Z,71.92
2017-10-22T06:02:34.869Z,71.94
2017-10-22T06:03:06.513Z,72.06
2017-10-22T06:03:38.162Z,72.10
2017-10-22T06:04:09.844Z,71.89
2017-10-22T06:04:41.493Z,71.98
2017-10-22T06:05:13.202Z,71.95
2017-10-22T06:05:44.850Z,72.04
2017-10-22T06:06:16.505Z,72.00
2017-10-22T06:06:48.304Z,71.93
2017-10-22T06:07:19.954Z,71.98
2017-10-22T06:07:51.598Z,71.90
2017-10-22T06:08:23.241Z,71.98
2017-10-22T06:08:54.894Z,71.96
2017-10-22T06:09:26.541Z,72.09
2017-10-22T06:09:58.189Z,72.11
2017-10-22T06:10:30.075Z,72.15
2017-10-22T06:11:01.745Z,72.05
2017-10-22T06:11:33.397Z,72.05
2017-10-22T06:12:05.050Z,72.25
2017-10-22T06:12:36.697Z,72.08
2017-10-22T06:13:08.354Z,72.21
2017-10-22T06:13:40.010Z,72.18
2017-10-22T06:14:11.890Z,72.22
2017-10-22T06:14:43.547Z,72.18
2017-10-22T06:15:15.202Z,72.18
2017-10-22T06:15:47.139Z,72.42
2017-10-22T06:16:18.793Z,72.31
2017-10-22T06:16:50.438Z,72.18
2017-10-22T06:17:22.085Z,72.30
2017-10-22T06:17:53.733Z,72.22
2017-10-22T06:18:25.382Z,72.23
2017-10-22T06:18:57.032Z,72.30
2017-10-22T06:19:28.686Z,72.25
2017-10-22T06:20:00.330Z,72.38
2017-10-22T06:20:31.974Z,72.31
2017-10-22T06:21:03.669Z,72.36
2017-10-22T06:21:35.323Z,72.37
2017-10-22T06:22:06.968Z,72.38
2017-10-22T06:22:38.622Z,72.50
2017-10-22T06:23:10.265Z,72.36
2017-10-22T06:23:41.913Z,72.49
2017-10-22T06:24:13.562Z,72.41
2017-10-22T06:24:45.210Z,72.38
2017-10-22T06:25:16.862Z,72.31
2017-10-22T06:25:48.549Z,72.35
2017-10-22T06:26:20.196Z,72.43
2017-10-22T06:26:51.850Z,72.41
2017-10-22T06:27:23.502Z,72.37
2017-10-22T06:27:55.149Z,72.49
2017-10-22T06:28:26.797Z,72.71
2017-10-22T06:28:58.449Z,72.52
2017-10-22T06:29:30.094Z,72.42
2017-10-22T06:30:01.773Z,72.56
2017-10-22T06:30:33.642Z,72.41
2017-10-22T06:31:05.334Z,72.47
2017-10-22T06:31:37.010Z,72.46
2017-10-22T06:32:08.959Z,72.42
2017-10-22T06:32:40.609Z,72.51
2017-10-22T06:33:12.255Z,72.49
2017-10-22T06:33:43.910Z,72.50
2017-10-22T06:34:15.557Z,72.60
2017-10-22T06:34:47.202Z,72.70
2017-10-22T06:35:18.846Z,72.79
2017-10-22T06:35:50.486Z,72.60
2017-10-22T06:36:22.133Z,72.70
2017-10-22T06:36:53.783Z,72.71
2017-10-22T06:37:25.672Z,72.75
2017-10-22T06:37:57.334Z,72.61
2017-10-22T06:38:28.986Z,72.82
2017-10-22T06:39:00.633Z,72.70
2017-10-22T06:39:32.281Z,72.77
2017-10-22T06:40:03.930Z,72.83
2017-10-22T06:40:35.574Z,72.88
2017-10-22T06:41:07.220Z,72.72
2017-10-22T06:41:39.127Z,72.80
2017-10-22T06:42:11.077Z,72.72
2017-10-22T06:42:42.726Z,72.85
2017-10-22T06:43:14.373Z,72.75
2017-10-22T06:43:46.021Z,72.83
2017-10-22T06:44:17.665Z,72.99
2017-10-22T06:44:49.552Z,72.87
2017-10-22T06:45:21.235Z,72.75
2017-10-22T06:45:53.071Z,72.80
2017-10-22T06:46:24.832Z,72.94
2017-10-22T06:46:56.526Z,72.84
2017-10-22T06:47:28.417Z,72.85
2017-10-22T06:48:00.366Z,72.99
2017-10-22T06:48:32.314Z,72.84
2017-10-22T06:49:04.163Z,72.88